createdAt,value
2022-11-19T00:02:43.049Z,98706.59
2022-11-19T00:07:34.862Z,98705.94
2022-11-19T00:12:45.131Z,98718.16
2022-11-19T00:17:36.772Z,98721.22
2022-11-19T00:22:28.452Z,98713.97
2022-11-19T00:27:20.091Z,98725.38
2022-11-19T00:32:11.744Z,98734.88
2022-11-19T00:37:03.400Z,98731.94
2022-11-19T00:41:55.173Z,98730.09
2022-11-19T00:46:46.879Z,98736.53
2022-11-19T00:51:38.617Z,98742.53
2022-11-19T00:56:30.317Z,98740.28
2022-11-19T01:01:24.198Z,98744.19
2022-11-19T01:06:19.744Z,98738.56
2022-11-19T01:11:32.414Z,98737.31
2022-11-19T01:16:28.653Z,98735.66
2022-11-19T01:21:22.861Z,98743.53
2022-11-19T01:26:15.724Z,98753.09
2022-11-19T01:31:20.754Z,98756.88
2022-11-19T01:36:15.280Z,98764.09
2022-11-19T01:41:07.971Z,98771.16
2022-11-19T01:45:59.546Z,98770.72
2022-11-19T01:50:57.317Z,98768.03
2022-11-19T01:55:50.722Z,98768.63
2022-11-19T02:00:42.884Z,98770.28
2022-11-19T02:05:36.175Z,98785.44
2022-11-19T02:10:46.085Z,98781.31
2022-11-19T02:15:48.113Z,98788.13
2022-11-19T02:21:14.914Z,98791.00
2022-11-19T02:26:34.369Z,98774.56
2022-11-19T02:31:42.532Z,98791.22
2022-11-19T02:36:41.000Z,98787.72
2022-11-19T02:41:55.251Z,98789.91
2022-11-19T02:46:50.389Z,98792.19
2022-11-19T02:51:42.916Z,98798.25
2022-11-19T02:57:04.231Z,98796.00
2022-11-19T03:02:15.206Z,98802.03
2022-11-19T03:07:25.052Z,98797.09
2022-11-19T03:12:37.776Z,98798.16
2022-11-19T03:17:54.803Z,98806.69
2022-11-19T03:22:54.159Z,98804.00
2022-11-19T03:27:49.363Z,98811.66
2022-11-19T03:32:47.636Z,98812.69
2022-11-19T03:37:42.977Z,98823.69
2022-11-19T03:42:35.684Z,98821.84
2022-11-19T03:47:40.979Z,98812.97
2022-11-19T03:52:33.492Z,98827.16
2022-11-19T03:57:26.916Z,98839.41
2022-11-19T04:02:19.098Z,98844.84
2022-11-19T04:07:18.133Z,98855.25
2022-11-19T04:12:16.358Z,98862.69
2022-11-19T04:17:07.895Z,98860.84
2022-11-19T04:21:59.587Z,98858.16
2022-11-19T04:26:51.267Z,98856.72
2022-11-19T04:31:43.420Z,98844.25
2022-11-19T04:36:36.799Z,98853.00
2022-11-19T04:41:28.632Z,98863.59
2022-11-19T04:46:20.404Z,98870.22
2022-11-19T04:51:12.106Z,98874.00
2022-11-19T04:56:04.153Z,98885.97
2022-11-19T05:00:55.830Z,98869.81
2022-11-19T05:05:47.584Z,98882.69
2022-11-19T05:10:39.231Z,98886.41
2022-11-19T05:15:30.979Z,98890.97
2022-11-19T05:20:22.553Z,98897.59
2022-11-19T05:25:14.426Z,98893.28
2022-11-19T05:30:06.798Z,98899.69
2022-11-19T05:34:58.455Z,98903.22
2022-11-19T05:39:50.022Z,98909.66
2022-11-19T05:44:41.704Z,98909.66
2022-11-19T05:49:33.305Z,98904.69
2022-11-19T05:54:25.125Z,98911.31
2022-11-19T05:59:17.225Z,98902.22
2022-11-19T06:04:11.073Z,98915.47
2022-11-19T06:09:02.752Z,98908.44
2022-11-19T06:13:54.466Z,98914.66
2022-11-19T06:18:46.085Z,98922.97
2022-11-19T06:23:37.717Z,98932.91
2022-11-19T06:28:29.505Z,98923.41
2022-11-19T06:33:21.080Z,98924.88
2022-11-19T06:38:13.024Z,98916.59
2022-11-19T06:43:05.127Z,98923.03
2022-11-19T06:47:56.785Z,98923.22
2022-11-19T06:52:48.760Z,98931.69
2022-11-19T06:57:40.383Z,98935.00
2022-11-19T07:02:32.062Z,98922.16
2022-11-19T07:07:23.790Z,98938.72
2022-11-19T07:12:15.560Z,98931.88
2022-11-19T07:17:07.281Z,98931.88
2022-11-19T07:21:58.955Z,98932.50
2022-11-19T07:26:50.623Z,98940.78
2022-11-19T07:31:42.485Z,98938.72
2022-11-19T07:36:34.228Z,98949.47
2022-11-19T07:41:44.592Z,98956.72
2022-11-19T07:46:36.398Z,98945.31
2022-11-19T07:51:28.503Z,98958.56
2022-11-19T07:56:20.606Z,98974.72
2022-11-19T08:01:18.576Z,98976.38
2022-11-19T08:06:10.443Z,98981.34
2022-11-19T08:11:06.809Z,98954.84
2022-11-19T08:16:06.750Z,98953.81
2022-11-19T08:21:11.898Z,98973.91
2022-11-19T08:26:06.075Z,98981.78
2022-11-19T08:31:04.956Z,98985.75
2022-11-19T08:35:56.610Z,98995.28
2022-11-19T08:40:53.091Z,98997.38
2022-11-19T08:45:54.422Z,98999.63
2022-11-19T08:50:46.080Z,99003.38
2022-11-19T08:55:37.702Z,98993.63
2022-11-19T09:00:30.136Z,98999.41
2022-11-19T09:05:21.904Z,99004.38
2022-11-19T09:10:13.617Z,99000.16
2022-11-19T09:15:06.131Z,99001.97
2022-11-19T09:19:57.986Z,99011.38
2022-11-19T09:24:49.712Z,99012.19
2022-11-19T09:29:41.345Z,99009.41
2022-11-19T09:34:35.258Z,99019.03
2022-11-19T09:39:26.910Z,99025.28
2022-11-19T09:44:18.659Z,99027.28
2022-11-19T09:49:17.224Z,99026.13
2022-11-19T09:54:18.048Z,99043.03
2022-11-19T09:59:39.472Z,99053.41
2022-11-19T10:04:33.557Z,99041.44
2022-11-19T10:09:50.997Z,99056.47
2022-11-19T10:14:48.481Z,99063.03
2022-11-19T10:19:56.599Z,99068.75
2022-11-19T10:25:13.563Z,99057.34
2022-11-19T10:30:17.206Z,99063.50
2022-11-19T10:35:18.119Z,99057.50
2022-11-19T10:40:17.071Z,99048.38
2022-11-19T10:45:25.631Z,99042.47
2022-11-19T10:50:19.375Z,99042.31
2022-11-19T10:55:33.397Z,99036.44
2022-11-19T11:00:25.068Z,99021.47
2022-11-19T11:05:19.095Z,99021.31
2022-11-19T11:10:35.483Z,99019.22
2022-11-19T11:15:27.604Z,99002.16
2022-11-19T11:20:20.166Z,99004.31
2022-11-19T11:25:24.332Z,98993.31
2022-11-19T11:30:17.571Z,98988.44
2022-11-19T11:35:29.892Z,98987.50
2022-11-19T11:40:24.039Z,98975.81
2022-11-19T11:45:33.003Z,98983.59
2022-11-19T11:50:27.585Z,98973.44
2022-11-19T11:55:25.589Z,98977.72
2022-11-19T12:00:45.659Z,98978.53
2022-11-19T12:05:45.900Z,98980.19
2022-11-19T12:11:01.749Z,98981.31
2022-11-19T12:16:31.139Z,98979.69
2022-11-19T12:21:43.923Z,98984.09
2022-11-19T12:26:47.528Z,98972.50
2022-11-19T12:31:57.629Z,98964.00
2022-11-19T12:37:04.544Z,98963.41
2022-11-19T12:42:08.382Z,98952.97
2022-11-19T12:47:12.938Z,98943.03
2022-11-19T12:52:50.308Z,98930.22
2022-11-19T12:58:10.658Z,98920.50
2022-11-19T13:03:36.438Z,98905.00
2022-11-19T13:08:43.801Z,98901.34
2022-11-19T13:13:37.859Z,98887.78
2022-11-19T13:18:34.642Z,98885.91
2022-11-19T13:23:32.743Z,98884.75
2022-11-19T13:28:30.672Z,98888.50
2022-11-19T13:33:25.229Z,98881.59
2022-11-19T13:38:27.542Z,98881.44
2022-11-19T13:43:39.940Z,98876.63
2022-11-19T13:48:39.810Z,98880.31
2022-11-19T13:53:40.820Z,98886.63
2022-11-19T13:58:38.403Z,98888.00
2022-11-19T14:03:44.059Z,98888.03
2022-11-19T14:09:00.184Z,98884.53
2022-11-19T14:14:40.840Z,98888.22
2022-11-19T14:20:07.635Z,98875.75
2022-11-19T14:25:18.087Z,98874.47
2022-11-19T14:30:12.464Z,98885.34
2022-11-19T14:35:04.682Z,98877.44
2022-11-19T14:40:02.817Z,98880.72
2022-11-19T14:45:03.444Z,98872.81
2022-11-19T14:49:55.388Z,98882.47
2022-11-19T14:54:54.717Z,98878.22
2022-11-19T14:59:51.048Z,98879.41
2022-11-19T15:04:53.320Z,98878.00
2022-11-19T15:09:51.412Z,98867.97
2022-11-19T15:15:02.934Z,98865.38
2022-11-19T15:20:19.805Z,98864.66
2022-11-19T15:25:26.798Z,98849.34
2022-11-19T15:30:39.186Z,98853.56
2022-11-19T15:36:15.989Z,98858.63
2022-11-19T15:41:12.874Z,98850.63
2022-11-19T15:46:12.477Z,98847.19
2022-11-19T15:51:07.248Z,98849.16
2022-11-19T15:56:07.193Z,98854.44
2022-11-19T16:00:59.080Z,98858.88
2022-11-19T16:06:07.823Z,98848.16
2022-11-19T16:11:20.727Z,98854.50
2022-11-19T16:16:55.603Z,98848.09
2022-11-19T16:22:07.743Z,98844.22
2022-11-19T16:27:01.506Z,98833.03
2022-11-19T16:31:56.931Z,98830.56
2022-11-19T16:36:49.447Z,98830.66
2022-11-19T16:42:00.833Z,98832.25
2022-11-19T16:46:52.645Z,98823.03
2022-11-19T16:51:50.299Z,98832.72
2022-11-19T16:56:47.750Z,98837.38
2022-11-19T17:01:39.631Z,98836.66
2022-11-19T17:06:33.398Z,98842.81
2022-11-19T17:12:10.513Z,98845.28
2022-11-19T17:17:03.813Z,98851.56
2022-11-19T17:22:18.340Z,98842.09
2022-11-19T17:27:29.627Z,98841.16
2022-11-19T17:32:21.506Z,98834.00
2022-11-19T17:37:13.415Z,98829.94
2022-11-19T17:42:23.647Z,98834.09
2022-11-19T17:47:22.777Z,98833.31
2022-11-19T17:52:30.427Z,98827.16
2022-11-19T17:57:22.494Z,98833.59
2022-11-19T18:02:16.567Z,98831.34
2022-11-19T18:07:08.247Z,98828.63
2022-11-19T18:12:00.173Z,98834.25
2022-11-19T18:16:52.046Z,98824.28
2022-11-19T18:21:45.792Z,98814.94
2022-11-19T18:26:37.589Z,98810.78
2022-11-19T18:31:29.793Z,98814.16
2022-11-19T18:36:22.126Z,98807.72
2022-11-19T18:41:15.762Z,98810.84
2022-11-19T18:46:07.310Z,98808.00
2022-11-19T18:50:58.917Z,98802.59
2022-11-19T18:55:51.053Z,98795.53
2022-11-19T19:00:43.101Z,98786.63
2022-11-19T19:05:34.866Z,98788.72
2022-11-19T19:10:26.514Z,98780.25
2022-11-19T19:15:18.383Z,98771.56
2022-11-19T19:20:10.663Z,98785.06
2022-11-19T19:25:02.609Z,98771.41
2022-11-19T19:29:54.197Z,98767.28
2022-11-19T19:34:45.981Z,98770.41
2022-11-19T19:39:37.593Z,98761.34
2022-11-19T19:44:29.232Z,98764.03
2022-11-19T19:49:21.472Z,98751.59
2022-11-19T19:54:14.235Z,98749.34
2022-11-19T19:59:05.867Z,98752.47
2022-11-19T20:04:02.694Z,98759.31
2022-11-19T20:08:54.366Z,98756.25
2022-11-19T20:13:46.297Z,98744.22
2022-11-19T20:18:38.845Z,98748.41
2022-11-19T20:23:30.797Z,98734.53
2022-11-19T20:28:22.423Z,98730.63
2022-11-19T20:33:14.041Z,98725.69
2022-11-19T20:38:05.666Z,98719.50
2022-11-19T20:43:15.933Z,98720.53
2022-11-19T20:48:07.679Z,98721.81
2022-11-19T20:52:59.300Z,98716.22
2022-11-19T20:57:50.909Z,98721.38
2022-11-19T21:02:42.580Z,98718.69
2022-11-19T21:07:34.301Z,98722.22
2022-11-19T21:12:26.107Z,98704.19
2022-11-19T21:17:17.715Z,98700.69
2022-11-19T21:22:09.336Z,98696.34
2022-11-19T21:27:01.053Z,98700.06
2022-11-19T21:31:52.811Z,98684.97
2022-11-19T21:36:46.003Z,98691.38
2022-11-19T21:41:38.295Z,98672.97
2022-11-19T21:46:30.370Z,98676.03
2022-11-19T21:51:24.910Z,98667.56
2022-11-19T21:56:17.011Z,98668.16
2022-11-19T22:01:11.270Z,98657.41
2022-11-19T22:06:08.471Z,98647.28
2022-11-19T22:11:00.500Z,98642.53
2022-11-19T22:16:00.676Z,98647.31
2022-11-19T22:21:03.140Z,98638.03
2022-11-19T22:25:54.821Z,98636.59
2022-11-19T22:30:53.026Z,98628.13
2022-11-19T22:35:44.646Z,98623.16
2022-11-19T22:40:36.236Z,98612.00
2022-11-19T22:45:27.951Z,98609.91
2022-11-19T22:50:19.649Z,98596.47
2022-11-19T22:55:11.715Z,98599.16
2022-11-19T23:00:13.138Z,98585.47
2022-11-19T23:05:05.468Z,98582.19
2022-11-19T23:09:57.311Z,98577.84
2022-11-19T23:14:48.907Z,98576.00
2022-11-19T23:19:40.775Z,98567.91
2022-11-19T23:24:33.514Z,98566.25
2022-11-19T23:29:25.155Z,98569.75
2022-11-19T23:34:16.688Z,98566.25
2022-11-19T23:39:15.066Z,98563.78
2022-11-19T23:44:06.950Z,98564.38
2022-11-19T23:49:00.273Z,98569.38
2022-11-19T23:53:52.793Z,98567.50
2022-11-19T23:58:44.913Z,98558.22
